Terminal Aerodrome Forecast
Issued by NWS Topeka, KS

Home | Current Version | Previous Version | Text Only | Print | Product List | Glossary On
Versions: 1 2 3 4 5 6 7 8 9 10 11 12 13 14 15 16 17 18 19
852
FTUS43 KTOP 282120 AAA
TAFTOP
TAF AMD
KTOP 282120Z 2821/2918 27011KT P6SM SCT040
     FM290000 22003KT P6SM FEW250
     FM291500 22010KT P6SM FEW030 SCT250=

USA.gov is the U.S. government's official web portal to all federal, state and local government web resources and services.